Observations for Trim Patrick St
| Time | AQI | Temp °C | Hum % | Pres Pa | CO μg/m³ | H₂S μg/m³ | NO μg/m³ | NO₂ μg/m³ | O₃ μg/m³ | SO₂ μg/m³ | PM1 μg/m³ | PM2.5 μg/m³ | PM10 μg/m³ |
|---|---|---|---|---|---|---|---|---|---|---|---|---|---|
| Sunday 2 August 2026 | |||||||||||||
| 16:56 | 3 | 26.3 | 36 | 69,063 | 0 | 0 | 1.48 | 13.23 | 73.8 | 9.02 | 3.71 | 10.44 | 11.48 |
| 16:55 | 3 | 26.3 | 36 | 69,059 | 0 | 0 | 1.38 | 18.21 | 75.37 | 7.51 | 2.86 | 8.86 | 9.74 |
| 16:54 | 3 | 26.3 | 36 | 69,053 | 0 | 0 | 1.26 | 13.45 | 74.16 | 7.83 | 2.86 | 8.87 | 9.76 |
| 16:52 | 3 | 26.3 | 37 | 69,031 | 0 | 0 | 1.21 | 14.01 | 74.6 | 7.88 | 2.86 | 8.79 | 9.67 |
| 16:50 | 3 | 26.3 | 37 | 69,033 | 0 | 0 | 1.26 | 16.3 | 76.7 | 8.54 | 4.57 | 10.42 | 11.46 |
| 16:49 | 3 | 26.3 | 37 | 69,049 | 0 | 0 | 1.24 | 15.01 | 76.78 | 8.36 | 3.71 | 9.62 | 10.58 |
| 16:48 | 3 | 26.3 | 37 | 69,071 | 0 | 0 | 1.46 | 14.13 | 72.38 | 8.01 | 4.57 | 11.18 | 12.3 |
| 16:47 | 3 | 26.3 | 37 | 69,069 | 0 | 0 | 1.48 | 13.61 | 73.03 | 7.94 | 3.71 | 9.6 | 10.56 |
| 16:46 | 3 | 26.3 | 37 | 69,063 | 0 | 0 | 1.5 | 21.1 | 79.61 | 8.25 | 3.71 | 9.58 | 10.54 |
| 16:45 | 3 | 26.3 | 37 | 69,057 | 0 | 0 | 1.5 | 16.78 | 73.77 | 7.92 | 3.71 | 9.58 | 10.54 |
| 16:44 | 3 | 26.3 | 37 | 69,051 | 0 | 0 | 1.5 | 14.52 | 73.51 | 7.47 | 3.71 | 9.6 | 10.56 |
| 16:41 | 3 | 26.2 | 38 | 69,037 | 0 | 0 | 1.51 | 18.21 | 72.96 | 7.48 | 2 | 7.98 | 8.78 |
| 16:38 | 3 | 26 | 39 | 69,014 | 0 | 0 | 1.31 | 19.98 | 74.98 | 6.73 | 2.86 | 8.68 | 9.55 |
| 16:37 | 3 | 25.9 | 40 | 68,997 | 0 | 0 | 1.29 | 17.12 | 68.81 | 7.47 | 3.71 | 10.22 | 11.24 |
| 16:35 | 3 | 25.7 | 40 | 69,004 | 0 | 10.63 | 1.22 | 43.46 | 83.88 | 9.02 | 3.71 | 10.21 | 11.23 |
| 16:31 | 3 | 25.2 | 40 | 68,947 | 0 | 5.24 | 1.14 | 18.99 | 72.71 | 7.44 | 2.86 | 8.59 | 9.45 |
| 16:30 | 3 | 25.1 | 40 | 68,973 | 0 | 3.46 | 1.19 | 30.23 | 74.01 | 7.59 | 2.86 | 9.42 | 10.36 |
| 16:29 | 3 | 25 | 41 | 68,977 | 0 | 4.32 | 1.29 | 15.21 | 71.03 | 7.67 | 2.86 | 8.53 | 9.38 |
| 16:28 | 3 | 24.9 | 42 | 68,951 | 0 | 7.88 | 1.27 | 37.04 | 74.59 | 7.75 | 3.71 | 9.28 | 10.21 |
| 16:27 | 3 | 24.8 | 40 | 68,947 | 0 | 1.06 | 1.3 | 13.08 | 69.27 | 6.81 | 2 | 7.8 | 8.58 |